Observations

85.3 °F / 29.6 °C
NE at 6 MPH
75%
76.6°F / 24.8 °C
29.87" (1011 mb)
10 mile(s)
clear
2017.07.22 2220 UTC

Observations

Surface


Raw METARs

2017/07/22 22:20
PKWA 222220Z AUTO 04005KT 10SM CLR 30/25 A2987 RMK AO2 T02960248

Translated METAR

Kwajalein, Bucholz AAF, Kwajalein KMR ATOL Airport, Marshall Islands (PKWA) 08-43N 167-44E 2M
Jul 22, 2017 - 06:20 PM EDT / 2017.07.22 2220 UTC
Wind: from the NE (040 degrees) at 6 MPH (5 KT):0
Visibility: 10 mile(s):0
Sky conditions: clear
Temperature: 85.3 F (29.6 C)
Heat index: 95.5 F (35.3 C):1
Dew Point: 76.6 F (24.8 C)
Relative Humidity: 75%
Pressure (altimeter): 29.87 in. Hg (1011 hPa)
ob: PKWA 222220Z AUTO 04005KT 10SM CLR 30/25 A2987 RMK AO2 T02960248
cycle: 22



Upper Air


Latest Skew-T

Skew T Diagram

Latest Data File